WetterOnline ( https://www.wetteronline.de )

Wetter aktuell Dannenberg

Aktuelles Wetter: Lüchow (18m)

6-stündlich | Neueste Meldungen
Ortszeit Temperatur Wetter
Sa, 21.05. 20:00 16.8° C bewölkt
Sa, 21.05. 14:00 16.8° C bedeckt
Sa, 21.05. 8:00 12.1° C bedeckt
Sa, 21.05. 2:00 14.7° C bedeckt
Fr, 20.05. 20:00 18.6° C leichter Regen
Fr, 20.05. 14:00 19.4° C leicht bewölkt
Fr, 20.05. 8:00 15.2° C bedeckt
Fr, 20.05. 2:00 16.4° C leicht bewölkt
Ortszeit Temperatur Wetter
Sa, 21.05. 23:30 10.6° C bewölkt
Sa, 21.05. 23:20 10.6° C bewölkt
Sa, 21.05. 23:10 10.4° C wolkig
Sa, 21.05. 23:00 11.5° C wolkig
Sa, 21.05. 22:50 11.5° C wolkig
Sa, 21.05. 22:40 11.9° C leicht bewölkt
Sa, 21.05. 22:30 12.5° C leicht bewölkt
Sa, 21.05. 22:00 13.2° C fast wolkenlos
Sa, 21.05. 21:30 13.7° C leicht bewölkt
Sa, 21.05. 21:00 14.9° C leicht bewölkt
Sa, 21.05. 20:30 15.9° C fast wolkenlos
Ortszeit Relative Feuchte Sichtweite
Sa, 21.05. 20:00 58% 65 km
Sa, 21.05. 14:00 63% 55 km
Sa, 21.05. 8:00 80% 40 km
Sa, 21.05. 2:00 76% 60 km
Fr, 20.05. 20:00 79% 13 km
Fr, 20.05. 14:00 60% 55 km
Fr, 20.05. 8:00 82% 30 km
Fr, 20.05. 2:00 93% 22 km
Ortszeit Relative Feuchte Sichtweite
Sa, 21.05. 23:30 79% 45 km
Sa, 21.05. 23:20 79% -
Sa, 21.05. 23:10 81% -
Sa, 21.05. 23:00 74% 55 km
Sa, 21.05. 22:50 74% -
Sa, 21.05. 22:40 72% -
Sa, 21.05. 22:30 71% 55 km
Sa, 21.05. 22:00 69% 65 km
Sa, 21.05. 21:30 67% 55 km
Sa, 21.05. 21:00 62% 65 km
Sa, 21.05. 20:30 59% 50 km
Ortszeit Niederschlagsmenge Niederschlagsart
Sa, 21.05. 20:00 0.1 l/m2 in 12 Std. Regen
Sa, 21.05. 14:00 0.1 l/m2 in 6 Std. Regen
Sa, 21.05. 8:00 0.4 l/m2 in 12 Std. Regen
Sa, 21.05. 2:00 0.4 l/m2 in 6 Std. Regen
Fr, 20.05. 20:00 0.4 l/m2 in 12 Std. Regen
Fr, 20.05. 14:00 0.0 l/m2 in 6 Std. -
Fr, 20.05. 8:00 0.2 l/m2 in 12 Std. -
Fr, 20.05. 2:00 0.3 l/m2 in 6 Std. Regen
Ortszeit Niederschlagsmenge Niederschlagsart
Sa, 21.05. 23:30 0.0 l/m2 in 1 Std. -
Sa, 21.05. 23:20 keine Meldung -
Sa, 21.05. 23:10 keine Meldung -
Sa, 21.05. 23:00 0.0 l/m2 in 1 Std. -
Sa, 21.05. 22:50 keine Meldung -
Sa, 21.05. 22:40 keine Meldung -
Sa, 21.05. 22:30 0.0 l/m2 in 1 Std. -
Sa, 21.05. 22:00 0.0 l/m2 in 1 Std. -
Sa, 21.05. 21:30 0.0 l/m2 in 1 Std. -
Sa, 21.05. 21:00 0.0 l/m2 in 1 Std. -
Sa, 21.05. 20:30 0.0 l/m2 in 1 Std. -
Ortszeit Stärke Spitze Richtung
km/h Bft. km/h Grad Sektor
Sa, 21.05. 20:00 14 3 47 320° NW
Sa, 21.05. 14:00 18 3 50 260° W
Sa, 21.05. 8:00 15 3 46 240° SW
Sa, 21.05. 2:00 30 5 59 280° W
Fr, 20.05. 20:00 4 1 18 130° SO
Fr, 20.05. 14:00 6 1 22 230° SW
Fr, 20.05. 8:00 9 2 24 260° W
Fr, 20.05. 2:00 9 2 22 260° W
Ortszeit Stärke Spitze Richtung
km/h Bft. km/h Grad Sektor
Sa, 21.05. 23:30 4 1 7 290° W
Sa, 21.05. 23:20 4 1 - 290° W
Sa, 21.05. 23:10 2 1 - 330° NW
Sa, 21.05. 23:00 2 1 13 290° W
Sa, 21.05. 22:50 2 1 - 290° W
Sa, 21.05. 22:40 4 1 - 310° NW
Sa, 21.05. 22:30 7 2 11 330° NW
Sa, 21.05. 22:00 6 1 17 320° NW
Sa, 21.05. 21:30 7 2 14 330° NW
Sa, 21.05. 21:00 11 2 28 330° NW
Sa, 21.05. 20:30 13 3 28 320° NW
Ortszeit Untergrenze Bedeckung Gattung
total tief tief mittel hoch
Sa, 21.05. 20:00 1350 m 7/8 7/8 - - -
Sa, 21.05. 14:00 1110 m 8/8 8/8 - - -
Sa, 21.05. 8:00 540 m 8/8 8/8 - - -
Sa, 21.05. 2:00 660 m 8/8 8/8 - - -
Fr, 20.05. 20:00 2700 m 7/8 7/8 - - -
Fr, 20.05. 14:00 9000 m 5/8 0/8 - - -
Fr, 20.05. 8:00 630 m 8/8 8/8 - - -
Fr, 20.05. 2:00 270 m 2/8 2/8 - - -
Ortszeit Bedeckungsgrad in Achtel und Wolkenuntergrenze
Sa, 21.05. 23:30 7(4500m)
Sa, 21.05. 23:20 7(4500m)
Sa, 21.05. 23:10 6
Sa, 21.05. 23:00 5(4500m)
Sa, 21.05. 22:50 5(4500m)
Sa, 21.05. 22:40 2
Sa, 21.05. 22:30 2(1500m)
Sa, 21.05. 22:00 1(1800m)
Sa, 21.05. 21:30 2(1800m)
Sa, 21.05. 21:00 2(1800m)
Sa, 21.05. 20:30 1(1350m)
Ortszeit Luftdruck NN (hPa) Tendenz (hPa in 3 Std.)
Sa, 21.05. 20:00 1018 + 0,7
Sa, 21.05. 14:00 1017 + 0,3
Sa, 21.05. 8:00 1017 + 0,7
Sa, 21.05. 2:00 1013 + 3,6
Fr, 20.05. 20:00 1012 - 3,2
Fr, 20.05. 14:00 1019 - 1,9
Fr, 20.05. 8:00 1021 + 1,5
Fr, 20.05. 2:00 1019 + 1,4
Ortszeit Luftdruck NN (hPa) Tendenz (hPa in 3 Std.)
Sa, 21.05. 23:30 1019 + 1,0
Sa, 21.05. 23:20 1019 keine Meldung
Sa, 21.05. 23:10 1019 keine Meldung
Sa, 21.05. 23:00 1019 + 1,1
Sa, 21.05. 22:50 1019 keine Meldung
Sa, 21.05. 22:40 1019 keine Meldung
Sa, 21.05. 22:30 1019 + 1,2
Sa, 21.05. 22:00 1019 + 1,2
Sa, 21.05. 21:30 1018 + 1,0
Sa, 21.05. 21:00 1018 + 0,9
Sa, 21.05. 20:30 1018 + 0,7
Ortszeit Schneehöhe (cm)
Sa, 21.05. 20:00 0
Sa, 21.05. 14:00 0
Sa, 21.05. 8:00 0
Sa, 21.05. 2:00 0
Fr, 20.05. 20:00 0
Fr, 20.05. 14:00 0
Fr, 20.05. 8:00 0
Fr, 20.05. 2:00 0
Ortszeit Schneehöhe (cm)
Sa, 21.05. 23:30 0
Sa, 21.05. 23:20 0
Sa, 21.05. 23:10 0
Sa, 21.05. 23:00 0
Sa, 21.05. 22:50 0
Sa, 21.05. 22:40 0
Sa, 21.05. 22:30 0
Sa, 21.05. 22:00 0
Sa, 21.05. 21:30 0
Sa, 21.05. 21:00 0
Sa, 21.05. 20:30 0
Link zu dieser Seite / Seite empfehlen

Das Wetter in ...